Time,TemperatureF,DewpointF,PressureIn,WindDirection,WindDirectionDegrees,WindSpeedMPH,WindSpeedGustMPH,Humidity,HourlyPrecipIn,Conditions,Clouds,dailyrainin,SoftwareType,DateUTC
2013-02-02 00:00:00,0.5,-6.1,30.06,North,0,2.9,3.5,73,0.00,CLR,CLR,0.00,WeatherDisplay:10.37,2013-02-02 06:00:00,
2013-02-02 00:05:00,0.5,-5.8,30.06,NNE,22,2.1,2.5,74,0.00,CLR,CLR,0.00,WeatherDisplay:10.37,2013-02-02 06:05:00,
2013-02-02 00:10:00,0.5,-5.8,30.06,North,0,2.7,4.7,74,0.00,CLR,CLR,0.00,WeatherDisplay:10.37,2013-02-02 06:10:00,
2013-02-02 00:15:00,0.5,-5.8,30.06,North,0,2.1,3.5,74,0.00,CLR,CLR,0.00,WeatherDisplay:10.37,2013-02-02 06:15:00,
2013-02-02 00:21:00,0.5,-5.8,30.07,North,0,3.8,3.8,74,0.00,CLR,CLR,0.00,WeatherDisplay:10.37,2013-02-02 06:21:00,
2013-02-02 00:26:00,0.3,-6.0,30.07,North,0,2.3,3.5,74,0.00,CLR,CLR,0.00,WeatherDisplay:10.37,2013-02-02 06:26:00,
2013-02-02 00:31:00,0.3,-6.0,30.07,NNW,338,3.9,4.6,74,0.00,CLR,CLR,0.00,WeatherDisplay:10.37,2013-02-02 06:31:00,
2013-02-02 00:36:00,0.5,-5.8,30.07,NNW,338,0.3,1.2,74,0.00,CLR,CLR,0.00,WeatherDisplay:10.37,2013-02-02 06:36:00,
2013-02-02 00:41:00,0.5,-5.8,30.07,North,0,3.8,5.8,74,0.00,CLR,CLR,0.00,WeatherDisplay:10.37,2013-02-02 06:41:00,
2013-02-02 00:47:00,0.7,-5.7,30.07,NW,315,2.0,2.3,74,0.00,CLR,CLR,0.00,WeatherDisplay:10.37,2013-02-02 06:47:00,
2013-02-02 00:52:00,0.7,-5.7,30.07,WNW,292,2.1,3.5,74,0.00,CLR,CLR,0.00,WeatherDisplay:10.37,2013-02-02 06:52:00,
2013-02-02 00:57:00,0.7,-5.7,30.06,NNW,338,3.6,4.6,74,0.00,CLR,CLR,0.00,WeatherDisplay:10.37,2013-02-02 06:57:00,
2013-02-02 01:02:00,0.7,-5.7,30.06,NNW,338,1.8,3.5,74,0.00,CLR,CLR,0.00,WeatherDisplay:10.37,2013-02-02 07:02:00,
2013-02-02 01:08:00,0.7,-5.7,30.06,NW,315,2.4,3.5,74,0.00,CLR,CLR,0.00,WeatherDisplay:10.37,2013-02-02 07:08:00,
2013-02-02 01:13:00,0.7,-5.7,30.06,WNW,292,1.9,2.7,74,0.00,CLR,CLR,0.00,WeatherDisplay:10.37,2013-02-02 07:13:00,
2013-02-02 01:18:00,0.7,-5.7,30.07,North,0,2.6,3.5,74,0.00,CLR,CLR,0.00,WeatherDisplay:10.37,2013-02-02 07:18:00,
2013-02-02 01:23:00,0.7,-5.4,30.07,NW,315,2.9,3.6,75,0.00,CLR,CLR,0.00,WeatherDisplay:10.37,2013-02-02 07:23:00,
2013-02-02 01:28:00,0.7,-5.4,30.07,NW,315,2.6,3.5,75,0.00,CLR,CLR,0.00,WeatherDisplay:10.37,2013-02-02 07:28:00,
2013-02-02 01:34:00,0.7,-5.4,30.07,NNW,338,4.4,5.8,75,0.00,CLR,CLR,0.00,WeatherDisplay:10.37,2013-02-02 07:34:00,
2013-02-02 01:39:00,0.7,-5.4,30.07,North,0,3.0,3.5,75,0.00,CLR,CLR,0.00,WeatherDisplay:10.37,2013-02-02 07:39:00,
2013-02-02 01:44:00,0.5,-5.6,30.07,WNW,292,2.6,3.6,75,0.00,CLR,CLR,0.00,WeatherDisplay:10.37,2013-02-02 07:44:00,
2013-02-02 01:49:00,0.5,-5.6,30.08,NW,315,3.7,4.6,75,0.00,CLR,CLR,0.00,WeatherDisplay:10.37,2013-02-02 07:49:00,
2013-02-02 01:54:00,0.5,-5.6,30.08,NNW,338,3.3,4.6,75,0.00,CLR,CLR,0.00,WeatherDisplay:10.37,2013-02-02 07:54:00,
2013-02-02 02:00:00,0.5,-5.6,30.08,NNW,338,3.5,4.6,75,0.00,CLR,CLR,0.00,WeatherDisplay:10.37,2013-02-02 08:00:00,
2013-02-02 02:06:00,0.5,-5.6,30.08,North,0,4.3,4.6,75,0.00,CLR,CLR,0.00,WeatherDisplay:10.37,2013-02-02 08:06:00,
2013-02-02 02:11:00,0.5,-5.6,30.09,North,0,5.3,5.8,75,0.00,CLR,CLR,0.00,WeatherDisplay:10.37,2013-02-02 08:11:00,
2013-02-02 02:16:00,0.5,-5.6,30.09,NW,315,4.3,6.9,75,0.00,CLR,CLR,0.00,WeatherDisplay:10.37,2013-02-02 08:16:00,
2013-02-02 02:21:00,0.5,-5.6,30.09,WNW,292,2.8,4.7,75,0.00,CLR,CLR,0.00,WeatherDisplay:10.37,2013-02-02 08:21:00,
2013-02-02 02:27:00,0.5,-5.6,30.09,NNW,338,4.1,6.7,75,0.00,CLR,CLR,0.00,WeatherDisplay:10.37,2013-02-02 08:27:00,
2013-02-02 02:32:00,0.5,-5.6,30.10,NW,315,2.3,4.5,75,0.00,CLR,CLR,0.00,WeatherDisplay:10.37,2013-02-02 08:32:00,
2013-02-02 02:37:00,0.5,-5.6,30.10,NNW,338,4.2,6.9,75,0.00,CLR,CLR,0.00,WeatherDisplay:10.37,2013-02-02 08:37:00,
2013-02-02 02:42:00,0.5,-5.6,30.10,NW,315,6.4,8.1,75,0.00,CLR,CLR,0.00,WeatherDisplay:10.37,2013-02-02 08:42:00,
2013-02-02 02:47:00,0.5,-5.6,30.10,NW,315,4.6,7.4,75,0.00,CLR,CLR,0.00,WeatherDisplay:10.37,2013-02-02 08:47:00,
2013-02-02 02:52:00,0.3,-5.7,30.10,NNE,22,6.0,6.9,75,0.00,CLR,CLR,0.00,WeatherDisplay:10.37,2013-02-02 08:52:00,
2013-02-02 02:58:00,0.5,-5.6,30.10,West,270,3.1,4.6,75,0.00,CLR,CLR,0.00,WeatherDisplay:10.37,2013-02-02 08:58:00,
2013-02-02 03:03:00,0.5,-5.6,30.10,NNW,338,4.9,6.9,75,0.00,CLR,CLR,0.00,WeatherDisplay:10.37,2013-02-02 09:03:00,
2013-02-02 03:08:00,0.3,-5.5,30.10,WNW,292,5.2,8.1,76,0.00,CLR,CLR,0.00,WeatherDisplay:10.37,2013-02-02 09:08:00,
2013-02-02 03:13:00,0.3,-5.5,30.10,NW,315,3.6,3.6,76,0.00,CLR,CLR,0.00,WeatherDisplay:10.37,2013-02-02 09:13:00,
2013-02-02 03:18:00,0.5,-5.3,30.10,NW,315,4.7,5.8,76,0.00,CLR,CLR,0.00,WeatherDisplay:10.37,2013-02-02 09:18:00,
2013-02-02 03:23:00,0.3,-5.7,30.10,West,270,6.0,8.3,75,0.00,CLR,CLR,0.00,WeatherDisplay:10.37,2013-02-02 09:23:00,
2013-02-02 03:28:00,0.3,-5.5,30.10,NW,315,4.0,4.0,76,0.00,CLR,CLR,0.00,WeatherDisplay:10.37,2013-02-02 09:28:00,
2013-02-02 03:33:00,0.3,-5.5,30.10,WNW,292,4.6,8.9,76,0.00,CLR,CLR,0.00,WeatherDisplay:10.37,2013-02-02 09:33:00,
2013-02-02 03:39:00,0.3,-5.5,30.11,NW,315,4.1,8.1,76,0.00,CLR,CLR,0.00,WeatherDisplay:10.37,2013-02-02 09:39:00,
2013-02-02 03:44:00,0.3,-5.5,30.11,WNW,292,7.0,7.0,76,0.00,CLR,CLR,0.00,WeatherDisplay:10.37,2013-02-02 09:44:00,
2013-02-02 03:49:00,0.3,-5.5,30.10,NW,315,5.0,5.0,76,0.00,CLR,CLR,0.00,WeatherDisplay:10.37,2013-02-02 09:49:00,
2013-02-02 03:54:00,0.3,-5.7,30.10,NW,315,4.9,8.1,75,0.00,CLR,CLR,0.00,WeatherDisplay:10.37,2013-02-02 09:54:00,
2013-02-02 03:59:00,0.3,-5.7,30.10,NNW,338,6.5,8.1,75,0.00,CLR,CLR,0.00,WeatherDisplay:10.37,2013-02-02 09:59:00,
2013-02-02 04:04:00,0.3,-5.7,30.11,NW,315,6.0,8.1,75,0.00,CLR,CLR,0.00,WeatherDisplay:10.37,2013-02-02 10:04:00,
2013-02-02 04:10:00,0.3,-5.7,30.10,NW,315,3.7,5.8,75,0.00,CLR,CLR,0.00,WeatherDisplay:10.37,2013-02-02 10:10:00,
2013-02-02 04:15:00,0.3,-5.7,30.11,NW,315,6.9,9.2,75,0.00,CLR,CLR,0.00,WeatherDisplay:10.37,2013-02-02 10:15:00,
2013-02-02 04:20:00,0.3,-5.7,30.11,WNW,292,4.5,6.9,75,0.00,CLR,CLR,0.00,WeatherDisplay:10.37,2013-02-02 10:20:00,
2013-02-02 04:25:00,0.1,-5.9,30.11,WNW,292,2.8,4.6,75,0.00,CLR,CLR,0.00,WeatherDisplay:10.37,2013-02-02 10:25:00,
2013-02-02 04:30:00,0.1,-5.9,30.12,NNW,338,4.2,4.6,75,0.00,CLR,CLR,0.00,WeatherDisplay:10.37,2013-02-02 10:30:00,
2013-02-02 04:35:00,0.3,-5.7,30.12,WNW,292,4.8,5.8,75,0.00,CLR,CLR,0.00,WeatherDisplay:10.37,2013-02-02 10:35:00,
2013-02-02 04:40:00,0.3,-5.7,30.13,WNW,292,6.5,6.9,75,0.00,CLR,CLR,0.00,WeatherDisplay:10.37,2013-02-02 10:40:00,
2013-02-02 04:45:00,0.3,-5.7,30.12,WNW,292,6.9,8.1,75,0.00,CLR,CLR,0.00,WeatherDisplay:10.37,2013-02-02 10:45:00,
2013-02-02 04:51:00,0.3,-5.7,30.13,WNW,292,3.9,6.0,75,0.00,CLR,CLR,0.00,WeatherDisplay:10.37,2013-02-02 10:51:00,
2013-02-02 04:56:00,0.3,-5.7,30.13,NW,315,5.0,5.8,75,0.00,CLR,CLR,0.00,WeatherDisplay:10.37,2013-02-02 10:56:00,
2013-02-02 05:01:00,0.3,-5.7,30.13,WNW,292,4.6,5.6,75,0.00,CLR,CLR,0.00,WeatherDisplay:10.37,2013-02-02 11:01:00,
2013-02-02 05:06:00,0.3,-5.7,30.13,WNW,292,4.4,6.9,75,0.00,CLR,CLR,0.00,WeatherDisplay:10.37,2013-02-02 11:06:00,
2013-02-02 05:11:00,0.3,-5.7,30.13,WNW,292,5.0,6.9,75,0.00,CLR,CLR,0.00,WeatherDisplay:10.37,2013-02-02 11:11:00,
2013-02-02 05:16:00,0.3,-5.7,30.13,NW,315,4.5,4.6,75,0.00,CLR,CLR,0.00,WeatherDisplay:10.37,2013-02-02 11:16:00,
2013-02-02 05:21:00,0.3,-5.7,30.13,NW,315,6.8,6.9,75,0.00,CLR,CLR,0.00,WeatherDisplay:10.37,2013-02-02 11:21:00,
2013-02-02 05:26:00,0.3,-5.7,30.13,WNW,292,4.2,5.8,75,0.00,CLR,CLR,0.00,WeatherDisplay:10.37,2013-02-02 11:26:00,
2013-02-02 05:31:00,0.3,-5.7,30.13,NNW,338,5.0,6.9,75,0.00,CLR,CLR,0.00,WeatherDisplay:10.37,2013-02-02 11:31:00,
2013-02-02 05:36:00,0.3,-5.7,30.13,NW,315,6.4,6.9,75,0.00,CLR,CLR,0.00,WeatherDisplay:10.37,2013-02-02 11:36:00,
2013-02-02 05:41:00,0.3,-5.7,30.13,NW,315,3.6,6.9,75,0.00,CLR,CLR,0.00,WeatherDisplay:10.37,2013-02-02 11:41:00,
2013-02-02 05:47:00,0.1,-5.9,30.13,NW,315,3.6,4.6,75,0.00,CLR,CLR,0.00,WeatherDisplay:10.37,2013-02-02 11:47:00,
2013-02-02 05:52:00,0.1,-5.9,30.13,NW,315,4.8,6.9,75,0.00,CLR,CLR,0.00,WeatherDisplay:10.37,2013-02-02 11:52:00,
2013-02-02 05:57:00,0.0,-6.1,30.14,NNW,338,3.9,4.6,75,0.00,CLR,CLR,0.00,WeatherDisplay:10.37,2013-02-02 11:57:00,
2013-02-02 06:02:00,0.0,-6.1,30.14,NW,315,3.5,4.6,75,0.00,CLR,CLR,0.00,WeatherDisplay:10.37,2013-02-02 12:02:00,
2013-02-02 06:07:00,0.1,-5.9,30.13,NNW,338,5.0,5.8,75,0.00,CLR,CLR,0.00,WeatherDisplay:10.37,2013-02-02 12:07:00,
2013-02-02 06:13:00,0.1,-5.9,30.13,NW,315,4.0,4.6,75,0.00,CLR,CLR,0.00,WeatherDisplay:10.37,2013-02-02 12:13:00,
2013-02-02 06:18:00,0.0,-6.1,30.14,NW,315,2.7,4.5,75,0.00,CLR,CLR,0.00,WeatherDisplay:10.37,2013-02-02 12:18:00,
2013-02-02 06:23:00,0.0,-6.1,30.14,NW,315,5.0,6.9,75,0.00,CLR,CLR,0.00,WeatherDisplay:10.37,2013-02-02 12:23:00,
2013-02-02 06:28:00,0.0,-6.1,30.14,NNW,338,3.6,4.6,75,0.00,CLR,CLR,0.00,WeatherDisplay:10.37,2013-02-02 12:28:00,
2013-02-02 06:33:00,0.0,-6.1,30.15,WNW,292,4.0,4.6,75,0.00,CLR,CLR,0.00,WeatherDisplay:10.37,2013-02-02 12:33:00,
2013-02-02 06:39:00,0.0,-6.1,30.15,NW,315,3.1,4.6,75,0.00,CLR,CLR,0.00,WeatherDisplay:10.37,2013-02-02 12:39:00,
2013-02-02 06:44:00,-0.2,-6.3,30.14,WNW,292,2.7,3.5,75,0.00,CLR,CLR,0.00,WeatherDisplay:10.37,2013-02-02 12:44:00,
2013-02-02 06:49:00,-0.2,-6.3,30.14,NW,315,2.8,3.5,75,0.00,CLR,CLR,0.00,WeatherDisplay:10.37,2013-02-02 12:49:00,
2013-02-02 06:54:00,-0.6,-6.6,30.14,NW,315,1.9,2.3,75,0.00,CLR,CLR,0.00,WeatherDisplay:10.37,2013-02-02 12:54:00,
2013-02-02 06:59:00,-0.6,-6.6,30.14,NW,315,2.4,3.5,75,0.00,CLR,CLR,0.00,WeatherDisplay:10.37,2013-02-02 12:59:00,
2013-02-02 07:04:00,-0.6,-6.9,30.14,NNE,22,1.2,3.1,74,0.00,CLR,CLR,0.00,WeatherDisplay:10.37,2013-02-02 13:04:00,
2013-02-02 07:10:00,-0.8,-7.1,30.14,NW,315,0.5,2.3,74,0.00,CLR,CLR,0.00,WeatherDisplay:10.37,2013-02-02 13:10:00,
2013-02-02 07:15:00,-0.8,-7.1,30.14,NW,315,1.7,2.3,74,0.00,CLR,CLR,0.00,WeatherDisplay:10.37,2013-02-02 13:15:00,
2013-02-02 07:20:00,-1.1,-7.4,30.14,NW,315,0.4,2.3,74,0.00,CLR,CLR,0.00,WeatherDisplay:10.37,2013-02-02 13:20:00,
2013-02-02 07:25:00,-1.1,-7.4,30.14,NW,315,0.0,0.0,74,0.00,CLR,CLR,0.00,WeatherDisplay:10.37,2013-02-02 13:25:00,
2013-02-02 07:30:00,-1.5,-7.8,30.14,WNW,292,0.0,0.0,74,0.00,CLR,CLR,0.00,WeatherDisplay:10.37,2013-02-02 13:30:00,
2013-02-02 07:35:00,-1.7,-7.9,30.14,NW,315,0.0,0.0,74,0.00,CLR,CLR,0.00,WeatherDisplay:10.37,2013-02-02 13:35:00,
2013-02-02 07:41:00,-1.7,-7.9,30.13,NW,315,0.4,1.2,74,0.00,CLR,CLR,0.00,WeatherDisplay:10.37,2013-02-02 13:41:00,
2013-02-02 07:46:00,-1.8,-7.8,30.13,NNW,338,0.0,0.0,75,0.00,CLR,CLR,0.00,WeatherDisplay:10.37,2013-02-02 13:46:00,
2013-02-02 07:51:00,-1.8,-7.8,30.13,NNW,338,0.0,0.0,75,0.00,CLR,CLR,0.00,WeatherDisplay:10.37,2013-02-02 13:51:00,
2013-02-02 07:56:00,-2.0,-8.3,30.14,NNW,338,0.0,0.0,74,0.00,CLR,CLR,0.00,WeatherDisplay:10.37,2013-02-02 13:56:00,
2013-02-02 08:01:00,-2.2,-8.5,30.14,West,270,0.0,0.0,74,0.00,CLR,CLR,0.00,WeatherDisplay:10.37,2013-02-02 14:01:00,
2013-02-02 08:07:00,-2.2,-8.2,30.14,West,270,0.0,0.0,75,0.00,CLR,CLR,0.00,WeatherDisplay:10.37,2013-02-02 14:07:00,
2013-02-02 08:12:00,-2.0,-8.0,30.14,West,270,0.0,0.0,75,0.00,CLR,CLR,0.00,WeatherDisplay:10.37,2013-02-02 14:12:00,
2013-02-02 08:17:00,-1.7,-7.7,30.14,WSW,248,0.0,0.0,75,0.00,CLR,CLR,0.00,WeatherDisplay:10.37,2013-02-02 14:17:00,
2013-02-02 08:23:00,-1.3,-7.0,30.15,WSW,248,0.0,0.0,76,0.00,CLR,CLR,0.00,WeatherDisplay:10.37,2013-02-02 14:23:00,
2013-02-02 08:28:00,-0.8,-6.5,30.15,West,270,0.0,0.0,76,0.00,CLR,CLR,0.00,WeatherDisplay:10.37,2013-02-02 14:28:00,
2013-02-02 08:33:00,-0.2,-6.0,30.15,WNW,292,0.0,0.0,76,0.00,CLR,CLR,0.00,WeatherDisplay:10.37,2013-02-02 14:33:00,
2013-02-02 08:38:00,0.1,-5.6,30.15,WNW,292,0.0,0.0,76,0.00,CLR,CLR,0.00,WeatherDisplay:10.37,2013-02-02 14:38:00,
2013-02-02 08:44:00,0.9,-4.9,30.15,WNW,292,0.2,1.2,76,0.00,CLR,CLR,0.00,WeatherDisplay:10.37,2013-02-02 14:44:00,
2013-02-02 08:49:00,1.4,-4.7,30.16,West,270,0.0,0.0,75,0.00,CLR,CLR,0.00,WeatherDisplay:10.37,2013-02-02 14:49:00,
2013-02-02 08:54:00,1.9,-4.2,30.16,WNW,292,0.0,0.0,75,0.00,CLR,CLR,0.00,WeatherDisplay:10.37,2013-02-02 14:54:00,
2013-02-02 08:59:00,2.3,-4.1,30.15,West,270,0.4,2.3,74,0.00,CLR,CLR,0.00,WeatherDisplay:10.37,2013-02-02 14:59:00,
2013-02-02 09:04:00,2.5,-3.9,30.15,WNW,292,1.2,3.5,74,0.00,CLR,CLR,0.00,WeatherDisplay:10.37,2013-02-02 15:04:00,
2013-02-02 09:10:00,2.8,-3.9,30.16,West,270,0.6,3.5,73,0.00,CLR,CLR,0.00,WeatherDisplay:10.37,2013-02-02 15:10:00,
2013-02-02 09:15:00,3.0,-3.7,30.15,West,270,0.7,3.5,73,0.00,CLR,CLR,0.00,WeatherDisplay:10.37,2013-02-02 15:15:00,
2013-02-02 09:20:00,3.4,-3.3,30.16,WNW,292,0.0,0.0,73,0.00,CLR,CLR,0.00,WeatherDisplay:10.37,2013-02-02 15:20:00,
2013-02-02 09:26:00,3.9,-2.8,30.16,North,0,1.8,2.3,73,0.00,CLR,CLR,0.00,WeatherDisplay:10.37,2013-02-02 15:26:00,
2013-02-02 09:31:00,4.6,-2.1,30.15,West,270,0.0,2.3,73,0.00,CLR,CLR,0.00,WeatherDisplay:10.37,2013-02-02 15:31:00,
2013-02-02 09:36:00,5.4,-1.7,30.15,North,0,0.0,1.2,72,0.00,CLR,CLR,0.00,WeatherDisplay:10.37,2013-02-02 15:36:00,
2013-02-02 09:41:00,5.9,-1.2,30.15,North,0,0.2,1.3,72,0.00,CLR,CLR,0.00,WeatherDisplay:10.37,2013-02-02 15:41:00,
2013-02-02 09:46:00,6.6,-0.5,30.15,North,0,0.6,3.5,72,0.00,CLR,CLR,0.00,WeatherDisplay:10.37,2013-02-02 15:46:00,
2013-02-02 09:51:00,7.3,-0.4,30.14,WNW,292,1.8,2.3,70,0.00,CLR,CLR,0.00,WeatherDisplay:10.37,2013-02-02 15:51:00,
2013-02-02 09:57:00,7.7,-0.4,30.14,NW,315,0.0,1.2,69,0.00,CLR,CLR,0.00,WeatherDisplay:10.37,2013-02-02 15:57:00,
2013-02-02 10:02:00,8.6,0.5,30.14,NNW,338,0.9,2.3,69,0.00,CLR,CLR,0.00,WeatherDisplay:10.37,2013-02-02 16:02:00,
2013-02-02 10:07:00,9.1,0.7,30.14,WNW,292,2.8,3.5,68,0.00,CLR,CLR,0.00,WeatherDisplay:10.37,2013-02-02 16:07:00,
2013-02-02 10:12:00,9.3,0.6,30.14,NW,315,0.7,2.3,67,0.00,CLR,CLR,0.00,WeatherDisplay:10.37,2013-02-02 16:12:00,
2013-02-02 10:18:00,9.5,0.4,30.14,WNW,292,2.1,3.5,66,0.00,CLR,CLR,0.00,WeatherDisplay:10.37,2013-02-02 16:18:00,
2013-02-02 10:23:00,9.1,-0.3,30.14,West,270,0.0,0.0,65,0.00,CLR,CLR,0.00,WeatherDisplay:10.37,2013-02-02 16:23:00,
2013-02-02 10:28:00,9.1,-0.3,30.14,NNW,338,0.1,0.0,65,0.00,CLR,CLR,0.00,WeatherDisplay:10.37,2013-02-02 16:28:00,
2013-02-02 10:33:00,10.0,0.6,30.14,WNW,292,0.0,0.0,65,0.00,CLR,CLR,0.00,WeatherDisplay:10.37,2013-02-02 16:33:00,
2013-02-02 10:38:00,10.8,1.3,30.15,SSE,158,0.0,0.0,65,0.00,CLR,CLR,0.00,WeatherDisplay:10.37,2013-02-02 16:38:00,
2013-02-02 10:43:00,11.7,1.8,30.14,South,180,1.1,2.3,64,0.00,CLR,CLR,0.00,WeatherDisplay:10.37,2013-02-02 16:43:00,
2013-02-02 10:49:00,12.4,2.2,30.15,South,180,0.0,0.0,63,0.00,CLR,CLR,0.00,WeatherDisplay:10.37,2013-02-02 16:49:00,
2013-02-02 10:54:00,12.7,2.2,30.15,SSE,158,0.0,2.3,62,0.00,CLR,CLR,0.00,WeatherDisplay:10.37,2013-02-02 16:54:00,
2013-02-02 10:59:00,12.9,2.3,30.15,WNW,292,0.0,0.0,62,0.00,CLR,CLR,0.00,WeatherDisplay:10.37,2013-02-02 16:59:00,
2013-02-02 11:04:00,13.3,2.3,30.14,NNE,22,0.0,0.0,61,0.00,CLR,CLR,0.00,WeatherDisplay:10.37,2013-02-02 17:04:00,
2013-02-02 11:09:00,13.3,2.3,30.14,WSW,248,0.4,2.3,61,0.00,CLR,CLR,0.00,WeatherDisplay:10.37,2013-02-02 17:09:00,
2013-02-02 11:15:00,13.6,2.3,30.14,ESE,112,1.2,2.3,60,0.00,CLR,CLR,0.00,WeatherDisplay:10.37,2013-02-02 17:15:00,
2013-02-02 11:20:00,14.2,2.5,30.14,East,90,3.4,3.4,59,0.00,CLR,CLR,0.00,WeatherDisplay:10.37,2013-02-02 17:20:00,
2013-02-02 11:25:00,14.5,2.8,30.13,SE,135,0.0,0.0,59,0.00,CLR,CLR,0.00,WeatherDisplay:10.37,2013-02-02 17:25:00,
2013-02-02 11:31:00,15.3,3.5,30.13,West,270,0.0,0.0,59,0.00,CLR,CLR,0.00,WeatherDisplay:10.37,2013-02-02 17:31:00,
2013-02-02 11:36:00,16.2,4.0,30.13,South,180,3.1,3.5,58,0.00,CLR,CLR,0.00,WeatherDisplay:10.37,2013-02-02 17:36:00,
2013-02-02 11:41:00,16.5,3.9,30.12,SSE,158,3.1,3.8,57,0.00,CLR,CLR,0.00,WeatherDisplay:10.37,2013-02-02 17:41:00,
2013-02-02 11:46:00,16.9,3.9,30.12,SSW,202,2.4,3.5,56,0.00,CLR,CLR,0.00,WeatherDisplay:10.37,2013-02-02 17:46:00,
2013-02-02 11:51:00,16.7,3.3,30.12,SSW,202,0.7,1.2,55,0.00,CLR,CLR,0.00,WeatherDisplay:10.37,2013-02-02 17:51:00,
2013-02-02 11:57:00,16.9,3.5,30.11,SSW,202,4.5,5.8,55,0.00,CLR,CLR,0.00,WeatherDisplay:10.37,2013-02-02 17:57:00,
2013-02-02 12:02:00,16.5,2.7,30.11,East,90,1.1,2.3,54,0.00,CLR,CLR,0.00,WeatherDisplay:10.37,2013-02-02 18:02:00,
2013-02-02 12:07:00,16.7,2.9,30.11,SSE,158,1.6,2.3,54,0.00,CLR,CLR,0.00,WeatherDisplay:10.37,2013-02-02 18:07:00,
2013-02-02 12:12:00,16.9,3.1,30.11,SSE,158,3.7,4.6,54,0.00,CLR,CLR,0.00,WeatherDisplay:10.37,2013-02-02 18:12:00,
2013-02-02 12:18:00,17.2,3.4,30.11,South,180,0.4,3.5,54,0.00,CLR,CLR,0.00,WeatherDisplay:10.37,2013-02-02 18:18:00,
2013-02-02 12:23:00,17.8,3.9,30.10,SW,225,2.7,3.8,54,0.00,CLR,CLR,0.00,WeatherDisplay:10.37,2013-02-02 18:23:00,
2013-02-02 12:28:00,18.0,3.7,30.10,South,180,4.0,9.4,53,0.00,CLR,CLR,0.00,WeatherDisplay:10.37,2013-02-02 18:28:00,
2013-02-02 12:33:00,17.8,3.5,30.10,SE,135,3.1,4.6,53,0.00,CLR,CLR,0.00,WeatherDisplay:10.37,2013-02-02 18:33:00,
2013-02-02 12:38:00,17.8,3.5,30.09,SSW,202,5.9,8.1,53,0.00,CLR,CLR,0.00,WeatherDisplay:10.37,2013-02-02 18:38:00,
2013-02-02 12:43:00,16.9,2.3,30.09,WSW,248,5.9,9.2,52,0.00,CLR,CLR,0.00,WeatherDisplay:10.37,2013-02-02 18:43:00,
2013-02-02 12:49:00,16.2,2.0,30.09,SE,135,3.8,5.8,53,0.00,CLR,CLR,0.00,WeatherDisplay:10.37,2013-02-02 18:49:00,
2013-02-02 12:54:00,16.9,2.7,30.09,South,180,6.8,9.2,53,0.00,CLR,CLR,0.00,WeatherDisplay:10.37,2013-02-02 18:54:00,
2013-02-02 12:59:00,16.9,2.7,30.09,WSW,248,3.8,5.8,53,0.00,CLR,CLR,0.00,WeatherDisplay:10.37,2013-02-02 18:59:00,
2013-02-02 13:04:00,16.9,2.7,30.10,South,180,0.9,7.2,53,0.00,CLR,CLR,0.00,WeatherDisplay:10.37,2013-02-02 19:04:00,
2013-02-02 13:09:00,17.2,3.0,30.08,SE,135,2.0,3.5,53,0.00,CLR,CLR,0.00,WeatherDisplay:10.37,2013-02-02 19:09:00,
2013-02-02 13:14:00,17.2,3.0,30.06,SSE,158,9.2,11.5,53,0.00,CLR,CLR,0.00,WeatherDisplay:10.37,2013-02-02 19:14:00,
2013-02-02 13:19:00,16.9,2.7,30.06,South,180,8.3,10.4,53,0.00,CLR,CLR,0.00,WeatherDisplay:10.37,2013-02-02 19:19:00,
2013-02-02 13:24:00,16.7,2.1,30.05,ESE,112,5.4,5.8,52,0.00,CLR,CLR,0.00,WeatherDisplay:10.37,2013-02-02 19:24:00,
2013-02-02 13:29:00,16.2,2.0,30.06,SSW,202,2.4,5.1,53,0.00,CLR,CLR,0.00,WeatherDisplay:10.37,2013-02-02 19:29:00,
2013-02-02 13:35:00,16.0,1.8,30.05,ESE,112,6.5,10.4,53,0.00,CLR,CLR,0.00,WeatherDisplay:10.37,2013-02-02 19:35:00,
2013-02-02 13:40:00,15.6,1.5,30.05,South,180,3.3,4.6,53,0.00,CLR,CLR,0.00,WeatherDisplay:10.37,2013-02-02 19:40:00,
2013-02-02 13:45:00,15.1,0.6,30.05,SSE,158,5.2,8.9,52,0.00,CLR,CLR,0.00,WeatherDisplay:10.37,2013-02-02 19:45:00,
2013-02-02 13:50:00,14.4,0.3,30.05,SE,135,2.1,3.5,53,0.00,CLR,CLR,0.00,WeatherDisplay:10.37,2013-02-02 19:50:00,
2013-02-02 13:55:00,13.8,-0.2,30.05,SSE,158,4.8,8.1,53,0.00,CLR,CLR,0.00,WeatherDisplay:10.37,2013-02-02 19:55:00,
2013-02-02 14:00:00,13.1,-0.5,30.04,South,180,4.2,5.8,54,0.00,CLR,CLR,0.00,WeatherDisplay:10.37,2013-02-02 20:00:00,
2013-02-02 14:06:00,12.7,-0.8,30.05,SSW,202,3.4,6.9,54,0.00,CLR,CLR,0.00,WeatherDisplay:10.37,2013-02-02 20:06:00,
2013-02-02 14:11:00,12.7,-0.4,30.05,South,180,6.1,11.5,55,0.00,CLR,CLR,0.00,WeatherDisplay:10.37,2013-02-02 20:11:00,
2013-02-02 14:16:00,12.6,-0.6,30.04,WSW,248,2.6,5.8,55,0.00,CLR,CLR,0.00,WeatherDisplay:10.37,2013-02-02 20:16:00,
2013-02-02 14:21:00,12.2,-0.9,30.04,SSE,158,5.6,8.1,55,0.00,CLR,CLR,0.00,WeatherDisplay:10.37,2013-02-02 20:21:00,
2013-02-02 14:27:00,12.6,-0.2,30.03,SSW,202,4.0,8.7,56,0.00,CLR,CLR,0.00,WeatherDisplay:10.37,2013-02-02 20:27:00,
2013-02-02 14:32:00,12.6,-0.2,30.03,SW,225,4.4,8.1,56,0.00,CLR,CLR,0.00,WeatherDisplay:10.37,2013-02-02 20:32:00,
2013-02-02 14:37:00,12.6,-0.2,30.03,SSW,202,5.3,9.2,56,0.00,CLR,CLR,0.00,WeatherDisplay:10.37,2013-02-02 20:37:00,
2013-02-02 14:42:00,12.7,0.0,30.04,SSE,158,2.8,7.4,56,0.00,CLR,CLR,0.00,WeatherDisplay:10.37,2013-02-02 20:42:00,
2013-02-02 14:47:00,12.9,0.2,30.04,South,180,5.6,8.1,56,0.00,CLR,CLR,0.00,WeatherDisplay:10.37,2013-02-02 20:47:00,
2013-02-02 14:53:00,13.6,0.8,30.03,SSE,158,5.7,10.4,56,0.00,CLR,CLR,0.00,WeatherDisplay:10.37,2013-02-02 20:53:00,
2013-02-02 14:58:00,13.8,1.0,30.03,South,180,6.0,9.2,56,0.00,CLR,CLR,0.00,WeatherDisplay:10.37,2013-02-02 20:58:00,
2013-02-02 15:03:00,13.8,1.0,30.03,SSW,202,2.7,6.9,56,0.00,CLR,CLR,0.00,WeatherDisplay:10.37,2013-02-02 21:03:00,
2013-02-02 15:08:00,14.2,1.3,30.03,SSE,158,5.5,6.9,56,0.00,CLR,CLR,0.00,WeatherDisplay:10.37,2013-02-02 21:08:00,
2013-02-02 15:13:00,14.4,1.5,30.03,South,180,7.3,9.2,56,0.00,CLR,CLR,0.00,WeatherDisplay:10.37,2013-02-02 21:13:00,
2013-02-02 15:18:00,14.2,1.3,30.02,SSE,158,3.5,8.1,56,0.00,CLR,CLR,0.00,WeatherDisplay:10.37,2013-02-02 21:18:00,
2013-02-02 15:24:00,14.4,1.5,30.02,WSW,248,4.1,4.6,56,0.00,CLR,CLR,0.00,WeatherDisplay:10.37,2013-02-02 21:24:00,
2013-02-02 15:29:00,14.5,1.3,30.01,SW,225,4.2,8.1,55,0.00,CLR,CLR,0.00,WeatherDisplay:10.37,2013-02-02 21:29:00,
2013-02-02 15:34:00,14.2,0.9,30.02,South,180,7.3,9.2,55,0.00,CLR,CLR,0.00,WeatherDisplay:10.37,2013-02-02 21:34:00,
2013-02-02 15:39:00,13.8,0.6,30.02,South,180,0.4,3.6,55,0.00,CLR,CLR,0.00,WeatherDisplay:10.37,2013-02-02 21:39:00,
2013-02-02 15:44:00,13.8,0.6,30.01,SSW,202,3.5,4.6,55,0.00,CLR,CLR,0.00,WeatherDisplay:10.37,2013-02-02 21:44:00,
2013-02-02 15:50:00,13.6,0.4,30.02,SW,225,3.1,4.6,55,0.00,CLR,CLR,0.00,WeatherDisplay:10.37,2013-02-02 21:50:00,
2013-02-02 15:55:00,13.6,0.8,30.01,SE,135,1.2,3.5,56,0.00,CLR,CLR,0.00,WeatherDisplay:10.37,2013-02-02 21:55:00,
2013-02-02 16:00:00,13.8,1.0,30.01,SSW,202,1.7,3.5,56,0.00,CLR,CLR,0.00,WeatherDisplay:10.37,2013-02-02 22:00:00,
2013-02-02 16:05:00,13.5,0.7,30.01,SSE,158,2.2,3.5,56,0.00,CLR,CLR,0.00,WeatherDisplay:10.37,2013-02-02 22:05:00,
2013-02-02 16:10:00,12.9,0.2,30.00,South,180,1.1,2.3,56,0.00,CLR,CLR,0.00,WeatherDisplay:10.37,2013-02-02 22:10:00,
2013-02-02 16:16:00,12.7,0.4,30.00,SSE,158,1.2,2.3,57,0.00,CLR,CLR,0.00,WeatherDisplay:10.37,2013-02-02 22:16:00,
2013-02-02 16:21:00,12.0,-0.3,30.00,South,180,3.7,4.6,57,0.00,CLR,CLR,0.00,WeatherDisplay:10.37,2013-02-02 22:21:00,
2013-02-02 16:26:00,11.7,-0.7,30.00,SSE,158,1.6,3.6,57,0.00,CLR,CLR,0.00,WeatherDisplay:10.37,2013-02-02 22:26:00,
2013-02-02 16:31:00,11.5,-0.5,30.00,ESE,112,3.8,5.8,58,0.00,CLR,CLR,0.00,WeatherDisplay:10.37,2013-02-02 22:31:00,
2013-02-02 16:36:00,11.5,-0.1,30.00,SE,135,4.1,5.8,59,0.00,CLR,CLR,0.00,WeatherDisplay:10.37,2013-02-02 22:36:00,
2013-02-02 16:42:00,11.3,-0.3,30.00,SE,135,4.9,5.8,59,0.00,CLR,CLR,0.00,WeatherDisplay:10.37,2013-02-02 22:42:00,
2013-02-02 16:47:00,10.9,-0.2,29.99,SE,135,3.2,4.6,60,0.00,CLR,CLR,0.00,WeatherDisplay:10.37,2013-02-02 22:47:00,
2013-02-02 16:52:00,10.6,-0.2,30.00,SSE,158,3.8,5.8,61,0.00,CLR,CLR,0.00,WeatherDisplay:10.37,2013-02-02 22:52:00,
2013-02-02 16:57:00,10.2,-0.2,30.00,South,180,3.3,4.6,62,0.00,CLR,CLR,0.00,WeatherDisplay:10.37,2013-02-02 22:57:00,
2013-02-02 17:02:00,9.7,-0.7,30.00,South,180,2.2,4.6,62,0.00,CLR,CLR,0.00,WeatherDisplay:10.37,2013-02-02 23:02:00,
2013-02-02 17:07:00,9.1,-0.9,30.00,SSE,158,2.6,4.5,63,0.00,CLR,CLR,0.00,WeatherDisplay:10.37,2013-02-02 23:07:00,
2013-02-02 17:13:00,8.8,-0.9,30.00,SE,135,2.9,4.6,64,0.00,CLR,CLR,0.00,WeatherDisplay:10.37,2013-02-02 23:13:00,
2013-02-02 17:18:00,8.4,-0.9,30.00,SSE,158,2.5,4.7,65,0.00,CLR,CLR,0.00,WeatherDisplay:10.37,2013-02-02 23:18:00,
2013-02-02 17:23:00,8.4,-0.6,30.00,South,180,1.8,3.5,66,0.00,CLR,CLR,0.00,WeatherDisplay:10.37,2013-02-02 23:23:00,
2013-02-02 17:28:00,8.4,-0.3,29.99,SSE,158,1.5,3.5,67,0.00,CLR,CLR,0.00,WeatherDisplay:10.37,2013-02-02 23:28:00,
2013-02-02 17:34:00,8.4,-0.3,29.99,SSE,158,0.8,2.3,67,0.00,CLR,CLR,0.00,WeatherDisplay:10.37,2013-02-02 23:34:00,
2013-02-02 17:39:00,8.4,0.0,29.99,SSE,158,2.9,4.7,68,0.00,CLR,CLR,0.00,WeatherDisplay:10.37,2013-02-02 23:39:00,
2013-02-02 17:44:00,8.4,0.0,29.99,South,180,1.5,2.3,68,0.00,CLR,CLR,0.00,WeatherDisplay:10.37,2013-02-02 23:44:00,
2013-02-02 17:49:00,8.2,0.2,29.99,South,180,3.2,6.9,69,0.00,CLR,CLR,0.00,WeatherDisplay:10.37,2013-02-02 23:49:00,
2013-02-02 17:54:00,8.2,0.2,29.99,South,180,3.3,4.6,69,0.00,CLR,CLR,0.00,WeatherDisplay:10.37,2013-02-02 23:54:00,
2013-02-02 17:59:00,8.2,0.2,29.99,South,180,2.7,5.1,69,0.00,CLR,CLR,0.00,WeatherDisplay:10.37,2013-02-02 23:59:00,
2013-02-02 18:05:00,8.1,0.3,29.98,South,180,3.0,4.6,70,0.00,CLR,CLR,0.00,WeatherDisplay:10.37,2013-02-03 00:05:00,
2013-02-02 18:10:00,7.9,0.1,29.98,South,180,0.8,2.3,70,0.00,CLR,CLR,0.00,WeatherDisplay:10.37,2013-02-03 00:10:00,
2013-02-02 18:15:00,7.9,0.1,29.98,SE,135,1.1,1.2,70,0.00,CLR,CLR,0.00,WeatherDisplay:10.37,2013-02-03 00:15:00,
2013-02-02 18:20:00,7.9,0.1,29.98,SE,135,0.2,1.2,70,0.00,CLR,CLR,0.00,WeatherDisplay:10.37,2013-02-03 00:20:00,
2013-02-02 18:25:00,8.1,0.6,29.98,SE,135,0.8,1.8,71,0.00,CLR,CLR,0.00,WeatherDisplay:10.37,2013-02-03 00:25:00,
2013-02-02 18:31:00,8.2,0.8,29.97,SE,135,2.7,3.5,71,0.00,CLR,CLR,0.00,WeatherDisplay:10.37,2013-02-03 00:31:00,
2013-02-02 18:36:00,8.2,0.8,29.97,SSE,158,2.7,4.9,71,0.00,CLR,CLR,0.00,WeatherDisplay:10.37,2013-02-03 00:36:00,
2013-02-02 18:41:00,8.2,0.8,29.97,SSE,158,3.8,4.6,71,0.00,CLR,CLR,0.00,WeatherDisplay:10.37,2013-02-03 00:41:00,
2013-02-02 18:46:00,8.1,0.6,29.97,SSE,158,3.9,9.2,71,0.00,CLR,CLR,0.00,WeatherDisplay:10.37,2013-02-03 00:46:00,
2013-02-02 18:52:00,7.9,0.4,29.97,SE,135,5.1,9.2,71,0.00,CLR,CLR,0.00,WeatherDisplay:10.37,2013-02-03 00:52:00,
2013-02-02 18:57:00,7.9,0.7,29.97,SSE,158,1.7,3.5,72,0.00,CLR,CLR,0.00,WeatherDisplay:10.37,2013-02-03 00:57:00,
2013-02-02 19:02:00,7.9,0.7,29.98,South,180,3.3,5.8,72,0.00,CLR,CLR,0.00,WeatherDisplay:10.37,2013-02-03 01:02:00,
2013-02-02 19:07:00,7.7,0.5,29.98,SE,135,4.2,5.8,72,0.00,CLR,CLR,0.00,WeatherDisplay:10.37,2013-02-03 01:07:00,
2013-02-02 19:12:00,7.5,0.4,29.98,SSE,158,4.1,4.6,72,0.00,CLR,CLR,0.00,WeatherDisplay:10.37,2013-02-03 01:12:00,
2013-02-02 19:18:00,7.5,0.4,29.97,ESE,112,3.2,5.8,72,0.00,CLR,CLR,0.00,WeatherDisplay:10.37,2013-02-03 01:18:00,
2013-02-02 19:23:00,7.5,0.4,29.97,SE,135,3.4,5.8,72,0.00,CLR,CLR,0.00,WeatherDisplay:10.37,2013-02-03 01:23:00,
2013-02-02 19:28:00,7.3,0.2,29.97,SSE,158,3.4,3.5,72,0.00,CLR,CLR,0.00,WeatherDisplay:10.37,2013-02-03 01:28:00,
2013-02-02 19:33:00,7.3,0.2,29.96,SE,135,3.8,4.7,72,0.00,CLR,CLR,0.00,WeatherDisplay:10.37,2013-02-03 01:33:00,
2013-02-02 19:38:00,7.3,0.2,29.96,SE,135,2.2,4.6,72,0.00,CLR,CLR,0.00,WeatherDisplay:10.37,2013-02-03 01:38:00,
2013-02-02 19:43:00,7.3,0.2,29.97,SSE,158,3.3,4.6,72,0.00,CLR,CLR,0.00,WeatherDisplay:10.37,2013-02-03 01:43:00,
2013-02-02 19:49:00,7.3,0.5,29.97,South,180,1.8,3.6,73,0.00,CLR,CLR,0.00,WeatherDisplay:10.37,2013-02-03 01:49:00,
2013-02-02 19:54:00,7.5,0.7,29.96,South,180,0.7,1.2,73,0.00,CLR,CLR,0.00,WeatherDisplay:10.37,2013-02-03 01:54:00,
2013-02-02 19:59:00,7.5,0.7,29.96,SE,135,0.9,1.2,73,0.00,CLR,CLR,0.00,WeatherDisplay:10.37,2013-02-03 01:59:00,
2013-02-02 20:04:00,7.7,0.8,29.96,SE,135,3.2,3.5,73,0.00,CLR,CLR,0.00,WeatherDisplay:10.37,2013-02-03 02:04:00,
2013-02-02 20:10:00,7.9,1.0,29.97,SSE,158,1.3,2.3,73,0.00,CLR,CLR,0.00,WeatherDisplay:10.37,2013-02-03 02:10:00,
2013-02-02 20:15:00,8.1,1.2,29.97,South,180,1.3,3.5,73,0.00,CLR,CLR,0.00,WeatherDisplay:10.37,2013-02-03 02:15:00,
2013-02-02 20:20:00,8.1,1.2,29.96,South,180,0.5,2.3,73,0.00,CLR,CLR,0.00,WeatherDisplay:10.37,2013-02-03 02:20:00,
2013-02-02 20:25:00,8.1,1.2,29.96,South,180,0.6,3.5,73,0.00,CLR,CLR,0.00,WeatherDisplay:10.37,2013-02-03 02:25:00,
2013-02-02 20:31:00,7.9,1.0,29.96,South,180,2.0,2.3,73,0.00,CLR,CLR,0.00,WeatherDisplay:10.37,2013-02-03 02:31:00,
2013-02-02 20:36:00,7.9,1.0,29.97,South,180,0.2,1.2,73,0.00,CLR,CLR,0.00,WeatherDisplay:10.37,2013-02-03 02:36:00,
2013-02-02 20:41:00,8.1,1.2,29.97,SSE,158,0.0,0.0,73,0.00,CLR,CLR,0.00,WeatherDisplay:10.37,2013-02-03 02:41:00,
2013-02-02 20:47:00,8.2,1.4,29.97,SE,135,0.0,0.0,73,0.00,CLR,CLR,0.00,WeatherDisplay:10.37,2013-02-03 02:47:00,
2013-02-02 20:52:00,8.4,1.5,29.97,SE,135,0.0,0.0,73,0.00,CLR,CLR,0.00,WeatherDisplay:10.37,2013-02-03 02:52:00,
2013-02-02 20:57:00,8.4,1.5,29.97,SSE,158,0.0,0.0,73,0.00,CLR,CLR,0.00,WeatherDisplay:10.37,2013-02-03 02:57:00,
2013-02-02 21:02:00,8.4,1.5,29.96,SSE,158,1.0,2.3,73,0.00,CLR,CLR,0.00,WeatherDisplay:10.37,2013-02-03 03:02:00,
2013-02-02 21:07:00,8.6,1.7,29.96,SE,135,0.0,0.0,73,0.00,CLR,CLR,0.00,WeatherDisplay:10.37,2013-02-03 03:07:00,
2013-02-02 21:12:00,8.6,1.7,29.96,South,180,0.0,0.0,73,0.00,CLR,CLR,0.00,WeatherDisplay:10.37,2013-02-03 03:12:00,
2013-02-02 21:18:00,8.6,1.7,29.96,South,180,0.0,0.0,73,0.00,CLR,CLR,0.00,WeatherDisplay:10.37,2013-02-03 03:18:00,
2013-02-02 21:23:00,8.6,1.7,29.96,SE,135,0.0,0.0,73,0.00,CLR,CLR,0.00,WeatherDisplay:10.37,2013-02-03 03:23:00,
2013-02-02 21:28:00,8.8,1.9,29.97,NW,315,0.0,0.0,73,0.00,CLR,CLR,0.00,WeatherDisplay:10.37,2013-02-03 03:28:00,
2013-02-02 21:33:00,8.6,1.7,29.97,WSW,248,0.5,2.3,73,0.00,CLR,CLR,0.00,WeatherDisplay:10.37,2013-02-03 03:33:00,
2013-02-02 21:38:00,8.2,1.4,29.96,West,270,1.0,2.3,73,0.00,CLR,CLR,0.00,WeatherDisplay:10.37,2013-02-03 03:38:00,
2013-02-02 21:44:00,8.2,1.4,29.97,West,270,1.3,2.3,73,0.00,CLR,CLR,0.00,WeatherDisplay:10.37,2013-02-03 03:44:00,
2013-02-02 21:49:00,8.2,1.4,29.97,SSW,202,0.4,2.3,73,0.00,CLR,CLR,0.00,WeatherDisplay:10.37,2013-02-03 03:49:00,
2013-02-02 21:54:00,8.2,1.4,29.97,WSW,248,1.6,2.3,73,0.00,CLR,CLR,0.00,WeatherDisplay:10.37,2013-02-03 03:54:00,
2013-02-02 21:59:00,8.2,1.7,29.97,West,270,2.2,3.5,74,0.00,CLR,CLR,0.00,WeatherDisplay:10.37,2013-02-03 03:59:00,
2013-02-02 22:04:00,7.9,1.3,29.97,WSW,248,1.3,2.5,74,0.00,CLR,CLR,0.00,WeatherDisplay:10.37,2013-02-03 04:04:00,
2013-02-02 22:10:00,7.7,1.1,29.97,WNW,292,1.4,2.3,74,0.00,CLR,CLR,0.00,WeatherDisplay:10.37,2013-02-03 04:10:00,
2013-02-02 22:15:00,7.5,1.0,29.97,WNW,292,1.4,4.0,74,0.00,CLR,CLR,0.00,WeatherDisplay:10.37,2013-02-03 04:15:00,
2013-02-02 22:20:00,7.5,1.0,29.97,WSW,248,0.6,3.5,74,0.00,CLR,CLR,0.00,WeatherDisplay:10.37,2013-02-03 04:20:00,
2013-02-02 22:25:00,7.3,1.1,29.97,West,270,2.2,3.5,75,0.00,CLR,CLR,0.00,WeatherDisplay:10.37,2013-02-03 04:25:00,
2013-02-02 22:31:00,7.3,1.1,29.97,West,270,0.2,1.6,75,0.00,CLR,CLR,0.00,WeatherDisplay:10.37,2013-02-03 04:31:00,
2013-02-02 22:36:00,7.3,1.1,29.97,West,270,0.6,2.3,75,0.00,CLR,CLR,0.00,WeatherDisplay:10.37,2013-02-03 04:36:00,
2013-02-02 22:41:00,7.3,1.1,29.97,West,270,0.0,0.0,75,0.00,CLR,CLR,0.00,WeatherDisplay:10.37,2013-02-03 04:41:00,
2013-02-02 22:46:00,7.3,1.4,29.97,West,270,1.9,3.5,76,0.00,CLR,CLR,0.00,WeatherDisplay:10.37,2013-02-03 04:46:00,
2013-02-02 22:51:00,7.3,1.4,29.97,WNW,292,1.9,3.5,76,0.00,CLR,CLR,0.00,WeatherDisplay:10.37,2013-02-03 04:51:00,
2013-02-02 22:56:00,7.3,1.4,29.97,West,270,2.0,3.5,76,0.00,CLR,CLR,0.00,WeatherDisplay:10.37,2013-02-03 04:56:00,
2013-02-02 23:01:00,7.5,1.8,29.97,West,270,3.1,3.5,77,0.00,CLR,CLR,0.00,WeatherDisplay:10.37,2013-02-03 05:01:00,
2013-02-02 23:04:00,7.5,1.8,29.97,West,270,1.8,2.3,77,0.00,CLR,CLR,0.00,WeatherDisplay:10.37,2013-02-03 05:04:00,
2013-02-02 23:09:00,7.5,1.8,29.97,WSW,248,2.7,4.7,77,0.00,CLR,CLR,0.00,WeatherDisplay:10.37,2013-02-03 05:09:00,
2013-02-02 23:14:00,7.5,1.8,29.97,West,270,1.7,4.9,77,0.00,CLR,CLR,0.00,WeatherDisplay:10.37,2013-02-03 05:14:00,
2013-02-02 23:19:00,7.3,1.6,29.97,West,270,2.0,2.3,77,0.00,CLR,CLR,0.00,WeatherDisplay:10.37,2013-02-03 05:19:00,
2013-02-02 23:24:00,7.3,1.6,29.97,West,270,2.2,3.5,77,0.00,CLR,CLR,0.00,WeatherDisplay:10.37,2013-02-03 05:24:00,
2013-02-02 23:29:00,7.3,1.6,29.97,West,270,2.0,3.5,77,0.00,CLR,CLR,0.00,WeatherDisplay:10.37,2013-02-03 05:29:00,
2013-02-02 23:35:00,7.3,1.6,29.97,West,270,1.6,2.3,77,0.00,CLR,CLR,0.00,WeatherDisplay:10.37,2013-02-03 05:35:00,
2013-02-02 23:40:00,7.3,1.6,29.97,WNW,292,2.8,3.5,77,0.00,CLR,CLR,0.00,WeatherDisplay:10.37,2013-02-03 05:40:00,
2013-02-02 23:45:00,7.3,1.6,29.97,West,270,3.1,4.6,77,0.00,CLR,CLR,0.00,WeatherDisplay:10.37,2013-02-03 05:45:00,
2013-02-02 23:50:00,7.5,1.8,29.98,NW,315,2.8,5.1,77,0.00,CLR,CLR,0.00,WeatherDisplay:10.37,2013-02-03 05:50:00,
2013-02-02 23:56:00,7.5,2.1,29.98,WSW,248,4.5,6.9,78,0.00,CLR,CLR,0.00,WeatherDisplay:10.37,2013-02-03 05:56:00,